createdAt,value
2022-08-30T00:00:22.619Z,99833.75
2022-08-30T00:05:18.888Z,99823.88
2022-08-30T00:07:46.714Z,99826.78
2022-08-30T00:10:14.589Z,99829.13
2022-08-30T00:12:44.370Z,99823.41
2022-08-30T00:15:13.987Z,99833.19
2022-08-30T00:17:43.467Z,99832.34
2022-08-30T00:20:15.793Z,99835.78
2022-08-30T00:22:43.595Z,99831.75
2022-08-30T00:25:12.447Z,99841.59
2022-08-30T00:27:40.389Z,99839.69
2022-08-30T00:30:11.847Z,99844.47
2022-08-30T00:32:39.850Z,99838.53
2022-08-30T00:35:10.210Z,99837.94
2022-08-30T00:37:38.055Z,99836.91
2022-08-30T00:40:07.831Z,99834.22
2022-08-30T00:47:42.797Z,99842.56
2022-08-30T00:50:12.717Z,99845.22
2022-08-30T00:52:43.446Z,99842.81
2022-08-30T00:55:13.731Z,99845.22
2022-08-30T01:00:11.234Z,99844.75
2022-08-30T01:02:40.858Z,99840.94
2022-08-30T01:05:11.830Z,99840.19
2022-08-30T01:10:14.619Z,99836.06
2022-08-30T01:12:44.840Z,99841.13
2022-08-30T01:15:15.576Z,99841.88
2022-08-30T01:17:47.918Z,99850.00
2022-08-30T01:23:07.630Z,99844.03
2022-08-30T01:25:38.079Z,99849.28
2022-08-30T01:28:08.351Z,99845.06
2022-08-30T01:30:38.989Z,99844.66
2022-08-30T01:33:08.990Z,99854.16
2022-08-30T01:38:14.498Z,99846.63
2022-08-30T01:40:42.523Z,99845.56
2022-08-30T01:43:12.374Z,99840.69
2022-08-30T01:45:40.364Z,99844.88
2022-08-30T01:48:08.364Z,99845.13
2022-08-30T01:53:05.562Z,99846.09
2022-08-30T01:58:02.778Z,99851.97
2022-08-30T02:02:58.874Z,99844.00
2022-08-30T02:07:54.892Z,99851.31
2022-08-30T02:12:52.170Z,99840.97
2022-08-30T02:17:48.122Z,99843.88
2022-08-30T02:22:47.609Z,99836.16
2022-08-30T02:25:20.831Z,99828.59
2022-08-30T02:32:46.368Z,99844.56
2022-08-30T02:37:42.073Z,99839.00
2022-08-30T02:40:11.598Z,99837.81
2022-08-30T02:42:39.899Z,99827.75
2022-08-30T02:47:38.298Z,99835.16
2022-08-30T02:50:07.385Z,99830.25
2022-08-30T02:52:36.062Z,99823.44
2022-08-30T02:57:31.890Z,99822.38
2022-08-30T02:59:59.728Z,99816.03
2022-08-30T03:07:25.739Z,99820.59
2022-08-30T03:09:53.892Z,99831.03
2022-08-30T03:14:49.975Z,99842.91
2022-08-30T03:17:17.966Z,99840.50
2022-08-30T03:22:15.564Z,99843.78
2022-08-30T03:24:43.353Z,99837.75
2022-08-30T03:27:11.195Z,99839.75
2022-08-30T03:29:40.246Z,99832.75
2022-08-30T03:32:09.176Z,99834.38
2022-08-30T03:34:37.030Z,99836.66
2022-08-30T03:37:04.891Z,99831.38
2022-08-30T03:39:34.089Z,99831.28
2022-08-30T03:42:01.958Z,99826.78
2022-08-30T03:44:31.549Z,99834.97
2022-08-30T03:46:59.355Z,99830.47
2022-08-30T03:51:55.097Z,99829.00
2022-08-30T03:54:24.766Z,99835.09
2022-08-30T03:56:54.154Z,99836.63
2022-08-30T03:59:22.039Z,99833.50
2022-08-30T04:01:49.908Z,99831.44
2022-08-30T04:04:20.895Z,99834.31
2022-08-30T04:06:49.491Z,99832.13
2022-08-30T04:09:17.898Z,99826.97
2022-08-30T04:11:45.854Z,99830.69
2022-08-30T04:14:15.071Z,99825.13
2022-08-30T04:16:42.988Z,99827.34
2022-08-30T04:19:10.908Z,99836.09
2022-08-30T04:21:43.330Z,99839.88
2022-08-30T04:24:11.381Z,99842.44
2022-08-30T04:26:39.326Z,99836.47
2022-08-30T04:29:07.444Z,99835.66
2022-08-30T04:31:36.752Z,99837.72
2022-08-30T04:34:04.751Z,99837.41
2022-08-30T04:36:32.556Z,99837.63
2022-08-30T04:41:28.289Z,99853.63
2022-08-30T04:43:56.109Z,99848.00
2022-08-30T04:48:53.303Z,99857.69
2022-08-30T04:51:21.080Z,99864.09
2022-08-30T04:53:48.863Z,99863.19
2022-08-30T04:56:18.520Z,99865.47
2022-08-30T04:58:47.462Z,99868.59
2022-08-30T05:01:17.653Z,99866.41
2022-08-30T05:08:47.006Z,99864.22
2022-08-30T05:11:16.511Z,99857.91
2022-08-30T05:13:45.036Z,99852.94
2022-08-30T05:16:17.823Z,99863.63
2022-08-30T05:18:46.779Z,99869.88
2022-08-30T05:21:18.743Z,99867.31
2022-08-30T05:26:18.048Z,99871.47
2022-08-30T05:28:46.362Z,99875.38
2022-08-30T05:31:17.812Z,99874.13
2022-08-30T05:33:46.158Z,99881.59
2022-08-30T05:38:45.704Z,99869.28
2022-08-30T05:41:14.335Z,99872.16
2022-08-30T05:43:42.410Z,99879.28
2022-08-30T05:46:12.444Z,99880.22
2022-08-30T05:48:41.225Z,99880.81
2022-08-30T05:51:11.504Z,99877.34
2022-08-30T05:53:39.815Z,99878.81
2022-08-30T05:56:11.635Z,99886.88
2022-08-30T06:01:09.330Z,99878.28
2022-08-30T06:03:37.188Z,99878.34
2022-08-30T06:08:33.082Z,99883.03
2022-08-30T06:11:00.883Z,99883.81
2022-08-30T06:13:30.060Z,99884.13
2022-08-30T06:15:57.923Z,99881.34
2022-08-30T06:18:28.629Z,99886.69
2022-08-30T06:20:56.709Z,99884.34
2022-08-30T06:23:24.767Z,99893.53
2022-08-30T06:25:52.597Z,99887.16
2022-08-30T06:28:20.474Z,99892.78
2022-08-30T06:30:49.844Z,99891.09
2022-08-30T06:33:17.686Z,99892.88
2022-08-30T06:35:57.036Z,99892.53
2022-08-30T06:38:27.196Z,99897.88
2022-08-30T06:40:55.064Z,99890.91
2022-08-30T06:43:22.971Z,99884.94
2022-08-30T06:45:52.230Z,99900.28
2022-08-30T06:48:20.032Z,99897.63
2022-08-30T06:50:54.462Z,99906.03
2022-08-30T06:53:22.320Z,99899.91
2022-08-30T06:58:24.542Z,99906.66
2022-08-30T07:00:53.893Z,99903.25
2022-08-30T07:03:21.782Z,99906.66
2022-08-30T07:05:50.825Z,99906.03
2022-08-30T07:08:19.056Z,99898.19
2022-08-30T07:10:47.791Z,99896.75
2022-08-30T07:13:15.699Z,99886.41
2022-08-30T07:15:45.863Z,99885.13
2022-08-30T07:18:33.383Z,99881.19
2022-08-30T07:21:08.363Z,99879.03
2022-08-30T07:23:36.307Z,99880.16
2022-08-30T07:26:06.584Z,99882.59
2022-08-30T07:28:34.840Z,99883.47
2022-08-30T07:31:03.020Z,99885.06
2022-08-30T07:33:32.231Z,99886.16
2022-08-30T07:36:00.416Z,99885.31
2022-08-30T07:38:30.203Z,99883.44
2022-08-30T07:40:59.200Z,99883.09
2022-08-30T07:43:27.110Z,99879.63
2022-08-30T07:45:55.091Z,99881.81
2022-08-30T07:48:22.895Z,99887.84
2022-08-30T07:50:56.374Z,99887.47
2022-08-30T07:53:26.201Z,99887.81
2022-08-30T07:58:22.064Z,99888.59
2022-08-30T08:03:18.555Z,99890.56
2022-08-30T08:05:47.163Z,99890.78
2022-08-30T08:08:16.494Z,99893.69
2022-08-30T08:10:44.447Z,99897.81
2022-08-30T08:13:12.420Z,99897.50
2022-08-30T08:15:40.700Z,99897.19
2022-08-30T08:18:08.654Z,99893.47
2022-08-30T08:20:36.796Z,99903.78
2022-08-30T08:23:05.242Z,99904.19
2022-08-30T08:25:35.468Z,99903.75
2022-08-30T08:28:03.413Z,99907.47
2022-08-30T08:30:36.463Z,99907.44
2022-08-30T08:33:05.230Z,99902.44
2022-08-30T08:35:33.434Z,99914.81
2022-08-30T08:38:01.292Z,99907.44
2022-08-30T08:40:31.445Z,99904.41
2022-08-30T08:43:03.826Z,99907.97
2022-08-30T08:45:47.401Z,99907.03
2022-08-30T08:48:32.102Z,99902.16
2022-08-30T08:51:33.544Z,99901.50
2022-08-30T08:54:07.523Z,99898.34
2022-08-30T08:56:36.663Z,99895.41
2022-08-30T08:59:09.006Z,99904.31
2022-08-30T09:01:38.561Z,99895.25
2022-08-30T09:04:11.276Z,99897.69
2022-08-30T09:06:50.259Z,99890.63
2022-08-30T09:09:21.489Z,99889.59
2022-08-30T09:11:49.518Z,99891.38
2022-08-30T09:14:22.892Z,99885.38
2022-08-30T09:16:58.924Z,99897.88
2022-08-30T09:19:44.150Z,99902.53
2022-08-30T09:25:00.795Z,99896.56
2022-08-30T09:27:33.496Z,99885.59
2022-08-30T09:30:07.748Z,99884.84
2022-08-30T09:32:44.731Z,99884.25
2022-08-30T09:35:18.563Z,99875.28
2022-08-30T09:37:53.005Z,99875.75
2022-08-30T09:40:27.706Z,99872.44
2022-08-30T09:48:30.268Z,99861.31
2022-08-30T09:51:20.298Z,99855.28
2022-08-30T09:56:54.361Z,99856.28
2022-08-30T09:59:42.401Z,99843.59
2022-08-30T10:02:31.111Z,99849.63
2022-08-30T10:05:07.728Z,99852.81
2022-08-30T10:07:44.851Z,99849.78
2022-08-30T10:10:20.558Z,99838.53
2022-08-30T10:13:01.616Z,99834.09
2022-08-30T10:18:12.666Z,99832.38
2022-08-30T10:20:49.041Z,99829.72
2022-08-30T10:23:21.759Z,99821.88
2022-08-30T10:25:55.011Z,99817.19
2022-08-30T10:28:30.721Z,99818.50
2022-08-30T10:31:04.207Z,99809.00
2022-08-30T10:33:37.612Z,99811.25
2022-08-30T10:36:10.722Z,99808.91
2022-08-30T10:38:40.876Z,99813.25
2022-08-30T10:43:54.258Z,99813.22
2022-08-30T10:46:30.170Z,99800.69
2022-08-30T10:49:02.633Z,99810.34
2022-08-30T10:51:35.980Z,99816.06
2022-08-30T10:54:11.851Z,99806.34
2022-08-30T10:56:46.366Z,99806.63
2022-08-30T10:59:17.473Z,99806.72
2022-08-30T11:02:13.342Z,99798.22
2022-08-30T11:05:00.677Z,99795.56
2022-08-30T11:07:39.206Z,99799.13
2022-08-30T11:10:41.082Z,99794.91
2022-08-30T11:13:21.403Z,99789.53
2022-08-30T11:16:00.910Z,99800.66
2022-08-30T11:18:30.555Z,99792.06
2022-08-30T11:21:23.751Z,99788.03
2022-08-30T11:24:02.151Z,99779.59
2022-08-30T11:26:57.522Z,99781.19
2022-08-30T11:29:43.578Z,99780.16
2022-08-30T11:32:25.256Z,99783.19
2022-08-30T11:34:59.411Z,99782.63
2022-08-30T11:37:50.620Z,99781.66
2022-08-30T11:43:54.353Z,99774.28
2022-08-30T11:46:38.273Z,99768.94
2022-08-30T11:52:27.201Z,99778.13
2022-08-30T11:55:13.448Z,99766.59
2022-08-30T11:57:49.732Z,99770.97
2022-08-30T12:03:00.193Z,99765.91
2022-08-30T12:08:47.194Z,99768.50
2022-08-30T12:14:47.588Z,99759.63
2022-08-30T12:18:06.056Z,99751.91
2022-08-30T12:23:20.120Z,99751.31
2022-08-30T12:25:48.161Z,99752.81
2022-08-30T12:28:24.048Z,99750.28
2022-08-30T12:30:52.881Z,99747.28
2022-08-30T12:33:29.529Z,99746.06
2022-08-30T12:35:59.492Z,99747.00
2022-08-30T12:38:28.366Z,99738.59
2022-08-30T12:43:38.920Z,99732.19
2022-08-30T12:46:12.440Z,99732.09
2022-08-30T12:48:43.393Z,99732.94
2022-08-30T12:57:13.990Z,99726.38
2022-08-30T12:59:58.163Z,99720.72
2022-08-30T13:02:30.049Z,99724.28
2022-08-30T13:04:59.398Z,99717.78
2022-08-30T13:07:37.012Z,99710.06
2022-08-30T13:10:19.793Z,99711.56
2022-08-30T13:13:02.002Z,99706.78
2022-08-30T13:15:33.719Z,99718.22
2022-08-30T13:21:22.650Z,99720.03
2022-08-30T13:23:51.042Z,99709.94
2022-08-30T13:26:23.392Z,99715.47
2022-08-30T13:28:55.506Z,99709.22
2022-08-30T13:31:25.487Z,99707.91
2022-08-30T13:54:49.955Z,99685.63
2022-08-30T13:57:53.525Z,99689.28
2022-08-30T14:08:02.317Z,99668.66
2022-08-30T14:25:40.872Z,99653.03
2022-08-30T14:35:36.088Z,99652.22
2022-08-30T14:38:03.947Z,99646.94
2022-08-30T14:43:00.334Z,99644.91
2022-08-30T14:45:28.167Z,99638.00
2022-08-30T14:52:55.935Z,99627.38
2022-08-30T14:55:23.988Z,99627.22
2022-08-30T14:57:51.782Z,99625.94
2022-08-30T15:00:20.507Z,99626.97
2022-08-30T15:02:53.395Z,99624.38
2022-08-30T15:12:49.041Z,99616.75
2022-08-30T15:15:19.657Z,99610.13
2022-08-30T15:17:47.887Z,99609.66
2022-08-30T15:20:18.834Z,99612.03
2022-08-30T15:22:47.054Z,99608.47
2022-08-30T15:25:17.005Z,99604.69
2022-08-30T15:32:43.087Z,99593.06
2022-08-30T15:35:11.802Z,99596.59
2022-08-30T15:37:39.626Z,99588.06
2022-08-30T15:40:08.815Z,99582.28
2022-08-30T15:42:38.019Z,99581.81
2022-08-30T15:47:34.794Z,99582.13
2022-08-30T15:52:33.910Z,99588.09
2022-08-30T15:55:01.731Z,99576.66
2022-08-30T15:57:29.613Z,99579.50
2022-08-30T15:59:59.032Z,99573.66
2022-08-30T16:02:27.813Z,99572.38
2022-08-30T16:04:55.804Z,99574.22
2022-08-30T16:07:23.658Z,99569.34
2022-08-30T16:09:53.569Z,99572.56
2022-08-30T16:12:23.580Z,99577.31
2022-08-30T16:14:51.864Z,99573.47
2022-08-30T16:22:18.623Z,99567.94
2022-08-30T16:24:50.493Z,99561.34
2022-08-30T16:27:18.323Z,99575.97
2022-08-30T16:32:18.572Z,99566.75
2022-08-30T16:34:49.812Z,99572.88
2022-08-30T16:37:17.745Z,99571.78
2022-08-30T16:42:20.833Z,99560.13
2022-08-30T16:47:18.119Z,99561.19
2022-08-30T16:52:15.291Z,99554.56
2022-08-30T16:54:43.075Z,99547.53
2022-08-30T16:57:11.771Z,99551.13
2022-08-30T16:59:39.596Z,99547.66
2022-08-30T17:02:07.950Z,99545.28
2022-08-30T17:04:35.910Z,99534.63
2022-08-30T17:12:00.901Z,99539.78
2022-08-30T17:17:00.598Z,99545.50
2022-08-30T17:19:28.831Z,99548.78
2022-08-30T17:21:58.077Z,99556.75
2022-08-30T17:24:26.363Z,99555.25
2022-08-30T17:26:56.124Z,99556.56
2022-08-30T17:29:26.251Z,99564.34
2022-08-30T17:31:54.153Z,99563.22
2022-08-30T17:34:22.970Z,99570.81
2022-08-30T17:36:51.379Z,99577.78
2022-08-30T17:39:19.229Z,99567.97
2022-08-30T17:41:50.122Z,99577.63
2022-08-30T17:44:25.654Z,99577.22
2022-08-30T17:46:54.519Z,99584.47
2022-08-30T17:49:22.638Z,99585.16
2022-08-30T17:51:55.650Z,99594.59
2022-08-30T17:54:25.866Z,99588.59
2022-08-30T17:57:13.148Z,99595.94
2022-08-30T17:59:43.277Z,99598.81
2022-08-30T18:02:11.549Z,99601.97
2022-08-30T18:04:41.708Z,99604.34
2022-08-30T18:07:12.025Z,99607.88
2022-08-30T18:09:40.521Z,99608.03
2022-08-30T18:12:09.365Z,99610.22
2022-08-30T18:14:38.576Z,99612.75
2022-08-30T18:17:09.136Z,99610.03
2022-08-30T18:19:46.341Z,99618.53
2022-08-30T18:22:14.772Z,99626.13
2022-08-30T18:24:42.566Z,99628.97
2022-08-30T18:27:10.537Z,99636.97
2022-08-30T18:29:38.607Z,99636.00
2022-08-30T18:32:09.094Z,99644.16
2022-08-30T18:34:37.287Z,99651.53
2022-08-30T18:37:05.837Z,99652.31
2022-08-30T18:39:39.602Z,99657.28
2022-08-30T18:42:09.761Z,99657.41
2022-08-30T18:44:37.961Z,99666.69
2022-08-30T18:47:06.200Z,99661.72
2022-08-30T18:49:36.946Z,99668.03
2022-08-30T18:52:07.334Z,99657.22
2022-08-30T18:54:39.598Z,99656.84
2022-08-30T18:57:08.390Z,99661.53
2022-08-30T18:59:38.233Z,99662.63
2022-08-30T19:02:07.503Z,99672.50
2022-08-30T19:04:39.428Z,99673.38
2022-08-30T19:07:12.610Z,99675.56
2022-08-30T19:12:11.375Z,99674.81
2022-08-30T19:14:39.830Z,99677.41
2022-08-30T19:19:47.443Z,99683.59
2022-08-30T19:22:19.192Z,99689.06
2022-08-30T19:24:47.470Z,99689.44
2022-08-30T19:27:15.406Z,99695.13
2022-08-30T19:29:45.089Z,99697.09
2022-08-30T19:32:13.190Z,99699.53
2022-08-30T19:34:42.182Z,99691.34
2022-08-30T19:37:10.049Z,99696.22
2022-08-30T19:39:43.973Z,99695.00
2022-08-30T19:42:14.786Z,99695.00
2022-08-30T19:44:42.676Z,99697.56
2022-08-30T19:47:11.485Z,99698.66
2022-08-30T19:49:39.315Z,99698.72
2022-08-30T19:54:35.758Z,99702.50
2022-08-30T19:57:05.165Z,99711.13
2022-08-30T19:59:33.214Z,99713.09
2022-08-30T20:02:01.110Z,99711.31
2022-08-30T20:04:29.789Z,99710.06
2022-08-30T20:06:57.636Z,99713.84
2022-08-30T20:09:25.617Z,99720.06
2022-08-30T20:11:55.148Z,99720.16
2022-08-30T20:14:26.632Z,99714.88
2022-08-30T20:16:54.574Z,99715.50
2022-08-30T20:19:27.723Z,99720.84
2022-08-30T20:22:04.267Z,99726.59
2022-08-30T20:27:09.674Z,99727.53
2022-08-30T20:29:40.301Z,99728.91
2022-08-30T20:32:08.246Z,99727.16
2022-08-30T20:34:36.413Z,99720.22
2022-08-30T20:37:04.401Z,99720.81
2022-08-30T20:39:32.336Z,99723.88
2022-08-30T20:42:00.143Z,99722.38
2022-08-30T20:44:27.960Z,99716.25
2022-08-30T20:46:57.435Z,99723.28
2022-08-30T20:49:25.334Z,99713.44
2022-08-30T20:51:54.517Z,99711.81
2022-08-30T20:54:22.625Z,99712.94
2022-08-30T20:56:51.447Z,99716.72
2022-08-30T20:59:19.395Z,99720.84
2022-08-30T21:01:48.997Z,99718.72
2022-08-30T21:04:19.216Z,99724.97
2022-08-30T21:06:47.029Z,99729.28
2022-08-30T21:09:15.397Z,99719.16
2022-08-30T21:11:44.845Z,99729.13
2022-08-30T21:14:12.984Z,99733.88
2022-08-30T21:16:40.994Z,99730.38
2022-08-30T21:19:09.225Z,99728.56
2022-08-30T21:21:38.441Z,99726.50
2022-08-30T21:24:10.059Z,99736.66
2022-08-30T21:26:39.319Z,99740.22
2022-08-30T21:29:07.726Z,99742.56
2022-08-30T21:31:37.761Z,99748.75
2022-08-30T21:34:06.733Z,99744.22
2022-08-30T21:36:45.651Z,99742.31
2022-08-30T21:39:18.156Z,99758.19
2022-08-30T21:44:16.937Z,99758.53
2022-08-30T21:46:45.760Z,99754.06
2022-08-30T21:49:15.485Z,99761.84
2022-08-30T21:51:46.041Z,99759.19
2022-08-30T21:54:17.355Z,99764.81
2022-08-30T21:56:47.896Z,99760.31
2022-08-30T21:59:16.127Z,99767.31
2022-08-30T22:01:44.401Z,99760.13
2022-08-30T22:04:13.552Z,99763.91
2022-08-30T22:06:45.029Z,99757.53
2022-08-30T22:09:15.551Z,99743.34
2022-08-30T22:11:44.834Z,99747.66
2022-08-30T22:14:13.233Z,99740.47
2022-08-30T22:16:43.001Z,99740.00
2022-08-30T22:19:11.593Z,99744.78
2022-08-30T22:21:42.443Z,99742.22
2022-08-30T22:24:10.804Z,99743.31
2022-08-30T22:29:10.077Z,99748.41
2022-08-30T22:31:41.549Z,99750.25
2022-08-30T22:34:11.420Z,99748.44
2022-08-30T22:36:39.950Z,99748.44
2022-08-30T22:39:10.182Z,99752.72
2022-08-30T22:41:39.574Z,99748.75
2022-08-30T22:44:07.528Z,99760.50
2022-08-30T22:46:36.638Z,99759.75
2022-08-30T22:49:06.122Z,99757.84
2022-08-30T22:54:03.483Z,99767.00
2022-08-30T22:56:31.679Z,99765.66
2022-08-30T22:59:01.040Z,99758.72
2022-08-30T23:01:31.103Z,99763.22
2022-08-30T23:06:30.179Z,99764.00
2022-08-30T23:08:58.633Z,99758.66
2022-08-30T23:11:26.835Z,99762.94
2022-08-30T23:13:55.211Z,99759.50
2022-08-30T23:16:24.584Z,99767.53
2022-08-30T23:18:53.164Z,99766.22
2022-08-30T23:21:23.532Z,99771.81
2022-08-30T23:24:10.053Z,99767.53
2022-08-30T23:26:56.694Z,99769.16
2022-08-30T23:29:42.677Z,99765.44
2022-08-30T23:32:30.260Z,99770.78
2022-08-30T23:35:15.707Z,99766.75
2022-08-30T23:38:01.537Z,99763.28
2022-08-30T23:40:46.716Z,99768.63
2022-08-30T23:43:32.467Z,99776.09
2022-08-30T23:46:19.386Z,99771.84
2022-08-30T23:49:06.711Z,99771.84
2022-08-30T23:51:52.575Z,99764.91
2022-08-30T23:54:38.237Z,99770.22
2022-08-30T23:57:24.429Z,99767.28
